sensor_id;sensor_type;location;lat;lon;timestamp;pressure;altitude;pressure_sealevel;temperature;humidity
43153;BME280;28756;49.064;9.290;2023-02-02T00:01:08;99655.47;;;4.19;100.00
43153;BME280;28756;49.064;9.290;2023-02-02T00:03:34;99661.56;;;4.15;100.00
43153;BME280;28756;49.064;9.290;2023-02-02T00:05:59;99651.13;;;4.23;100.00
43153;BME280;28756;49.064;9.290;2023-02-02T00:08:25;99652.78;;;4.27;100.00
43153;BME280;28756;49.064;9.290;2023-02-02T00:10:51;99646.78;;;4.25;100.00
43153;BME280;28756;49.064;9.290;2023-02-02T00:13:17;99648.44;;;4.27;100.00
43153;BME280;28756;49.064;9.290;2023-02-02T00:15:42;99649.31;;;4.28;100.00
43153;BME280;28756;49.064;9.290;2023-02-02T00:18:08;99639.03;;;4.28;100.00
43153;BME280;28756;49.064;9.290;2023-02-02T00:20:34;99641.69;;;4.23;100.00
43153;BME280;28756;49.064;9.290;2023-02-02T00:23:00;99645.16;;;4.21;100.00
43153;BME280;28756;49.064;9.290;2023-02-02T00:25:26;99640.03;;;4.21;100.00
43153;BME280;28756;49.064;9.290;2023-02-02T00:27:52;99646.84;;;4.23;100.00
43153;BME280;28756;49.064;9.290;2023-02-02T00:30:18;99648.53;;;4.23;100.00
43153;BME280;28756;49.064;9.290;2023-02-02T00:32:44;99645.09;;;4.24;100.00
43153;BME280;28756;49.064;9.290;2023-02-02T00:35:13;99633.91;;;4.25;100.00
43153;BME280;28756;49.064;9.290;2023-02-02T00:37:40;99641.63;;;4.25;100.00
43153;BME280;28756;49.064;9.290;2023-02-02T00:40:07;99639.81;;;4.32;100.00
43153;BME280;28756;49.064;9.290;2023-02-02T00:42:33;99639.84;;;4.29;100.00
43153;BME280;28756;49.064;9.290;2023-02-02T00:44:59;99639.06;;;4.25;100.00
43153;BME280;28756;49.064;9.290;2023-02-02T00:47:46;99638.16;;;4.29;100.00
43153;BME280;28756;49.064;9.290;2023-02-02T00:50:15;99639.91;;;4.27;100.00
43153;BME280;28756;49.064;9.290;2023-02-02T00:52:42;99633.81;;;4.30;100.00
43153;BME280;28756;49.064;9.290;2023-02-02T00:55:09;99637.19;;;4.33;100.00
43153;BME280;28756;49.064;9.290;2023-02-02T00:57:35;99642.34;;;4.33;100.00
43153;BME280;28756;49.064;9.290;2023-02-02T01:00:01;99635.53;;;4.31;100.00
43153;BME280;28756;49.064;9.290;2023-02-02T01:02:26;99627.81;;;4.31;100.00
43153;BME280;28756;49.064;9.290;2023-02-02T01:04:52;99639.81;;;4.30;100.00
43153;BME280;28756;49.064;9.290;2023-02-02T01:07:18;99641.56;;;4.30;100.00
43153;BME280;28756;49.064;9.290;2023-02-02T01:09:44;99627.94;;;4.24;100.00
43153;BME280;28756;49.064;9.290;2023-02-02T01:12:09;99640.84;;;4.21;100.00
43153;BME280;28756;49.064;9.290;2023-02-02T01:14:35;99642.59;;;4.19;100.00
43153;BME280;28756;49.064;9.290;2023-02-02T01:17:01;99649.53;;;4.17;100.00
43153;BME280;28756;49.064;9.290;2023-02-02T01:19:26;99649.50;;;4.19;100.00
43153;BME280;28756;49.064;9.290;2023-02-02T01:21:52;99653.00;;;4.15;100.00
43153;BME280;28756;49.064;9.290;2023-02-02T01:24:18;99659.13;;;4.09;100.00
43153;BME280;28756;49.064;9.290;2023-02-02T01:26:44;99658.22;;;4.11;100.00
43153;BME280;28756;49.064;9.290;2023-02-02T01:29:09;99658.13;;;4.15;100.00
43153;BME280;28756;49.064;9.290;2023-02-02T01:31:36;99663.41;;;4.10;100.00
43153;BME280;28756;49.064;9.290;2023-02-02T01:34:02;99657.50;;;4.03;100.00
43153;BME280;28756;49.064;9.290;2023-02-02T01:36:28;99655.78;;;4.04;100.00
43153;BME280;28756;49.064;9.290;2023-02-02T01:38:53;99663.50;;;4.04;100.00
43153;BME280;28756;49.064;9.290;2023-02-02T01:41:24;99663.50;;;4.04;100.00
43153;BME280;28756;49.064;9.290;2023-02-02T01:43:56;99660.91;;;4.04;100.00
43153;BME280;28756;49.064;9.290;2023-02-02T01:46:34;99654.97;;;4.00;100.00
43153;BME280;28756;49.064;9.290;2023-02-02T01:49:13;99664.41;;;4.01;100.00
43153;BME280;28756;49.064;9.290;2023-02-02T01:51:55;99656.63;;;4.04;100.00
43153;BME280;28756;49.064;9.290;2023-02-02T01:54:28;99655.13;;;3.92;100.00
43153;BME280;28756;49.064;9.290;2023-02-02T01:57:02;99648.13;;;3.99;100.00
43153;BME280;28756;49.064;9.290;2023-02-02T01:59:30;99643.88;;;3.97;100.00
43153;BME280;28756;49.064;9.290;2023-02-02T02:01:57;99651.66;;;3.95;100.00
43153;BME280;28756;49.064;9.290;2023-02-02T02:04:24;99649.88;;;3.99;100.00
43153;BME280;28756;49.064;9.290;2023-02-02T02:06:51;99649.75;;;4.05;100.00
43153;BME280;28756;49.064;9.290;2023-02-02T02:09:18;99637.81;;;4.01;100.00
43153;BME280;28756;49.064;9.290;2023-02-02T02:11:44;99654.06;;;4.03;100.00
43153;BME280;28756;49.064;9.290;2023-02-02T02:14:11;99644.47;;;4.11;100.00
43153;BME280;28756;49.064;9.290;2023-02-02T02:17:25;99644.47;;;4.13;100.00
43153;BME280;28756;49.064;9.290;2023-02-02T02:23:39;99641.81;;;4.17;100.00
43153;BME280;28756;49.064;9.290;2023-02-02T02:33:06;99650.41;;;4.15;100.00
43153;BME280;28756;49.064;9.290;2023-02-02T02:36:23;99651.31;;;4.12;100.00
43153;BME280;28756;49.064;9.290;2023-02-02T02:39:18;99651.31;;;4.14;100.00
43153;BME280;28756;49.064;9.290;2023-02-02T02:41:52;99655.56;;;4.16;100.00
43153;BME280;28756;49.064;9.290;2023-02-02T02:44:21;99656.47;;;4.12;100.00
43153;BME280;28756;49.064;9.290;2023-02-02T02:46:48;99661.63;;;4.12;100.00
43153;BME280;28756;49.064;9.290;2023-02-02T02:49:14;99662.59;;;4.06;100.00
43153;BME280;28756;49.064;9.290;2023-02-02T02:51:51;99665.19;;;4.05;100.00
43153;BME280;28756;49.064;9.290;2023-02-02T02:54:36;99660.03;;;4.05;100.00
43153;BME280;28756;49.064;9.290;2023-02-02T02:57:33;99671.13;;;4.10;100.00
43153;BME280;28756;49.064;9.290;2023-02-02T03:00:37;99655.75;;;4.05;100.00
43153;BME280;28756;49.064;9.290;2023-02-02T03:06:28;99663.34;;;4.11;100.00
43153;BME280;28756;49.064;9.290;2023-02-02T03:09:05;99667.69;;;4.09;100.00
43153;BME280;28756;49.064;9.290;2023-02-02T03:11:34;99666.84;;;4.07;100.00
43153;BME280;28756;49.064;9.290;2023-02-02T03:14:01;99663.41;;;4.10;100.00
43153;BME280;28756;49.064;9.290;2023-02-02T03:16:27;99665.84;;;4.16;100.00
43153;BME280;28756;49.064;9.290;2023-02-02T03:18:53;99664.03;;;4.21;100.00
43153;BME280;28756;49.064;9.290;2023-02-02T03:21:21;99666.47;;;4.27;100.00
43153;BME280;28756;49.064;9.290;2023-02-02T03:23:47;99652.78;;;4.27;100.00
43153;BME280;28756;49.064;9.290;2023-02-02T03:26:12;99652.72;;;4.29;100.00
43153;BME280;28756;49.064;9.290;2023-02-02T03:28:38;99658.75;;;4.27;100.00
43153;BME280;28756;49.064;9.290;2023-02-02T03:31:04;99657.97;;;4.24;100.00
43153;BME280;28756;49.064;9.290;2023-02-02T03:33:32;99659.63;;;4.26;100.00
43153;BME280;28756;49.064;9.290;2023-02-02T03:35:59;99654.47;;;4.26;100.00
43153;BME280;28756;49.064;9.290;2023-02-02T03:38:25;99657.97;;;4.24;100.00
43153;BME280;28756;49.064;9.290;2023-02-02T03:40:51;99652.81;;;4.24;100.00
43153;BME280;28756;49.064;9.290;2023-02-02T03:43:21;99661.31;;;4.29;100.00
43153;BME280;28756;49.064;9.290;2023-02-02T03:45:53;99662.19;;;4.28;100.00
43153;BME280;28756;49.064;9.290;2023-02-02T03:48:19;99660.38;;;4.33;100.00
43153;BME280;28756;49.064;9.290;2023-02-02T03:50:45;99650.97;;;4.31;100.00
43153;BME280;28756;49.064;9.290;2023-02-02T03:53:11;99666.47;;;4.27;100.00
43153;BME280;28756;49.064;9.290;2023-02-02T03:55:36;99663.94;;;4.26;100.00
43153;BME280;28756;49.064;9.290;2023-02-02T03:58:05;99660.41;;;4.32;100.00
43153;BME280;28756;49.064;9.290;2023-02-02T04:00:30;99657.78;;;4.33;100.00
43153;BME280;28756;49.064;9.290;2023-02-02T04:02:56;99669.84;;;4.31;100.00
43153;BME280;28756;49.064;9.290;2023-02-02T04:05:22;99674.19;;;4.27;100.00
43153;BME280;28756;49.064;9.290;2023-02-02T04:07:47;99662.03;;;4.36;100.00
43153;BME280;28756;49.064;9.290;2023-02-02T04:10:13;99669.69;;;4.39;100.00
43153;BME280;28756;49.064;9.290;2023-02-02T04:12:39;99676.69;;;4.34;100.00
43153;BME280;28756;49.064;9.290;2023-02-02T04:15:06;99669.78;;;4.34;100.00
43153;BME280;28756;49.064;9.290;2023-02-02T04:17:32;99686.16;;;4.30;100.00
43153;BME280;28756;49.064;9.290;2023-02-02T04:19:58;99698.25;;;4.26;100.00
43153;BME280;28756;49.064;9.290;2023-02-02T04:22:25;99687.91;;;4.30;100.00
43153;BME280;28756;49.064;9.290;2023-02-02T04:24:50;99693.88;;;4.30;100.00
43153;BME280;28756;49.064;9.290;2023-02-02T04:27:16;99687.03;;;4.31;100.00
43153;BME280;28756;49.064;9.290;2023-02-02T04:29:42;99686.16;;;4.32;100.00
43153;BME280;28756;49.064;9.290;2023-02-02T04:32:08;99689.63;;;4.29;100.00
43153;BME280;28756;49.064;9.290;2023-02-02T04:34:34;99693.84;;;4.33;100.00
43153;BME280;28756;49.064;9.290;2023-02-02T04:37:00;99689.59;;;4.31;100.00
43153;BME280;28756;49.064;9.290;2023-02-02T04:39:25;99702.31;;;4.40;100.00
43153;BME280;28756;49.064;9.290;2023-02-02T04:41:51;99695.53;;;4.34;100.00
43153;BME280;28756;49.064;9.290;2023-02-02T04:44:17;99696.38;;;4.36;100.00
43153;BME280;28756;49.064;9.290;2023-02-02T04:46:43;99704.94;;;4.37;100.00
43153;BME280;28756;49.064;9.290;2023-02-02T04:49:10;99700.66;;;4.37;100.00
43153;BME280;28756;49.064;9.290;2023-02-02T04:51:38;99709.06;;;4.44;100.00
43153;BME280;28756;49.064;9.290;2023-02-02T04:54:05;99699.56;;;4.48;100.00
43153;BME280;28756;49.064;9.290;2023-02-02T04:56:31;99714.22;;;4.44;100.00
43153;BME280;28756;49.064;9.290;2023-02-02T04:58:57;99714.22;;;4.44;100.00
43153;BME280;28756;49.064;9.290;2023-02-02T05:01:23;99725.41;;;4.43;100.00
43153;BME280;28756;49.064;9.290;2023-02-02T05:03:50;99714.22;;;4.46;100.00
43153;BME280;28756;49.064;9.290;2023-02-02T05:06:16;99721.91;;;4.47;100.00
43153;BME280;28756;49.064;9.290;2023-02-02T05:08:44;99715.06;;;4.46;100.00
43153;BME280;28756;49.064;9.290;2023-02-02T05:11:13;99709.00;;;4.49;100.00
43153;BME280;28756;49.064;9.290;2023-02-02T05:13:44;99707.38;;;4.45;100.00
43153;BME280;28756;49.064;9.290;2023-02-02T05:16:10;99722.00;;;4.42;100.00
43153;BME280;28756;49.064;9.290;2023-02-02T05:18:36;99734.09;;;4.39;100.00
43153;BME280;28756;49.064;9.290;2023-02-02T05:21:02;99735.84;;;4.37;100.00
43153;BME280;28756;49.064;9.290;2023-02-02T05:23:29;99734.78;;;4.47;100.00
43153;BME280;28756;49.064;9.290;2023-02-02T05:25:55;99726.28;;;4.42;100.00
43153;BME280;28756;49.064;9.290;2023-02-02T05:28:22;99727.16;;;4.42;100.00
43153;BME280;28756;49.064;9.290;2023-02-02T05:30:48;99745.97;;;4.46;100.00
43153;BME280;28756;49.064;9.290;2023-02-02T05:33:15;99748.56;;;4.45;100.00
43153;BME280;28756;49.064;9.290;2023-02-02T05:35:45;99740.81;;;4.46;100.00
43153;BME280;28756;49.064;9.290;2023-02-02T05:38:11;99740.84;;;4.45;100.00
43153;BME280;28756;49.064;9.290;2023-02-02T05:40:37;99752.84;;;4.46;100.00
43153;BME280;28756;49.064;9.290;2023-02-02T05:43:02;99750.25;;;4.47;100.00
43153;BME280;28756;49.064;9.290;2023-02-02T05:45:28;99753.59;;;4.51;100.00
43153;BME280;28756;49.064;9.290;2023-02-02T05:47:54;99750.25;;;4.47;100.00
43153;BME280;28756;49.064;9.290;2023-02-02T05:50:20;99748.50;;;4.49;100.00
43153;BME280;28756;49.064;9.290;2023-02-02T05:52:46;99757.09;;;4.47;100.00
43153;BME280;28756;49.064;9.290;2023-02-02T05:55:13;99755.34;;;4.49;100.00
43153;BME280;28756;49.064;9.290;2023-02-02T05:57:38;99754.72;;;4.36;100.00
43153;BME280;28756;49.064;9.290;2023-02-02T06:00:05;99758.25;;;4.32;100.00
43153;BME280;28756;49.064;9.290;2023-02-02T06:02:31;99764.31;;;4.29;100.00
43153;BME280;28756;49.064;9.290;2023-02-02T06:04:57;99767.81;;;4.25;100.00
43153;BME280;28756;49.064;9.290;2023-02-02T06:07:23;99765.19;;;4.26;100.00
43153;BME280;28756;49.064;9.290;2023-02-02T06:09:48;99770.38;;;4.25;100.00
43153;BME280;28756;49.064;9.290;2023-02-02T06:12:14;99767.75;;;4.26;100.00
43153;BME280;28756;49.064;9.290;2023-02-02T06:14:40;99760.88;;;4.29;100.00
43153;BME280;28756;49.064;9.290;2023-02-02T06:17:05;99771.00;;;4.38;100.00
43153;BME280;28756;49.064;9.290;2023-02-02T06:19:31;99772.72;;;4.39;100.00
43153;BME280;28756;49.064;9.290;2023-02-02T06:21:57;99773.63;;;4.36;100.00
43153;BME280;28756;49.064;9.290;2023-02-02T06:24:23;99785.59;;;4.39;100.00
43153;BME280;28756;49.064;9.290;2023-02-02T06:26:49;99778.59;;;4.46;100.00
43153;BME280;28756;49.064;9.290;2023-02-02T06:29:15;99777.75;;;4.45;100.00
43153;BME280;28756;49.064;9.290;2023-02-02T06:31:40;99785.59;;;4.39;100.00
43153;BME280;28756;49.064;9.290;2023-02-02T06:34:08;99786.34;;;4.44;100.00
43153;BME280;28756;49.064;9.290;2023-02-02T06:36:35;99799.34;;;4.38;100.00
43153;BME280;28756;49.064;9.290;2023-02-02T06:39:01;99788.16;;;4.39;100.00
43153;BME280;28756;49.064;9.290;2023-02-02T06:41:29;99784.75;;;4.37;100.00
43153;BME280;28756;49.064;9.290;2023-02-02T06:43:56;99789.03;;;4.38;100.00
43153;BME280;28756;49.064;9.290;2023-02-02T06:46:21;99794.25;;;4.33;100.00
43153;BME280;28756;49.064;9.290;2023-02-02T06:48:47;99787.41;;;4.34;100.00
43153;BME280;28756;49.064;9.290;2023-02-02T06:51:13;99788.22;;;4.36;100.00
43153;BME280;28756;49.064;9.290;2023-02-02T06:53:39;99789.88;;;4.38;100.00
43153;BME280;28756;49.064;9.290;2023-02-02T06:56:06;99790.78;;;4.37;100.00
43153;BME280;28756;49.064;9.290;2023-02-02T06:58:33;99790.69;;;4.40;100.00
43153;BME280;28756;49.064;9.290;2023-02-02T07:01:11;99792.31;;;4.46;100.00
43153;BME280;28756;49.064;9.290;2023-02-02T07:03:37;99796.66;;;4.44;100.00
43153;BME280;28756;49.064;9.290;2023-02-02T07:06:29;99801.72;;;4.49;100.00
43153;BME280;28756;49.064;9.290;2023-02-02T07:08:56;99802.59;;;4.48;100.00
43153;BME280;28756;49.064;9.290;2023-02-02T07:11:22;99800.75;;;4.54;100.00
43153;BME280;28756;49.064;9.290;2023-02-02T07:13:49;99794.84;;;4.49;100.00
43153;BME280;28756;49.064;9.290;2023-02-02T07:16:16;99800.94;;;4.45;100.00
43153;BME280;28756;49.064;9.290;2023-02-02T07:18:43;99806.97;;;4.42;100.00
43153;BME280;28756;49.064;9.290;2023-02-02T07:21:19;99807.66;;;4.52;100.00
43153;BME280;28756;49.064;9.290;2023-02-02T07:23:46;99803.47;;;4.48;100.00
43153;BME280;28756;49.064;9.290;2023-02-02T07:26:12;99802.59;;;4.48;100.00
43153;BME280;28756;49.064;9.290;2023-02-02T07:28:39;99790.59;;;4.48;100.00
43153;BME280;28756;49.064;9.290;2023-02-02T07:31:21;99803.41;;;4.50;100.00
43153;BME280;28756;49.064;9.290;2023-02-02T07:33:48;99804.31;;;4.47;100.00
43153;BME280;28756;49.064;9.290;2023-02-02T07:36:17;99805.16;;;4.49;100.00
43153;BME280;28756;49.064;9.290;2023-02-02T07:38:48;99805.97;;;4.51;100.00
43153;BME280;28756;49.064;9.290;2023-02-02T07:41:15;99810.19;;;4.54;100.00
43153;BME280;28756;49.064;9.290;2023-02-02T07:43:41;99825.78;;;4.48;100.00
43153;BME280;28756;49.064;9.290;2023-02-02T07:46:09;99814.66;;;4.46;100.00
43153;BME280;28756;49.064;9.290;2023-02-02T07:48:35;99806.13;;;4.42;100.00
43153;BME280;28756;49.064;9.290;2023-02-02T07:51:05;99812.06;;;4.47;100.00
43153;BME280;28756;49.064;9.290;2023-02-02T07:53:32;99807.78;;;4.46;100.00
43153;BME280;28756;49.064;9.290;2023-02-02T07:56:19;99813.75;;;4.47;100.00
43153;BME280;28756;49.064;9.290;2023-02-02T07:58:45;99814.66;;;4.46;100.00
43153;BME280;28756;49.064;9.290;2023-02-02T08:01:14;99824.03;;;4.50;100.00
43153;BME280;28756;49.064;9.290;2023-02-02T08:03:41;99817.13;;;4.50;100.00
43153;BME280;28756;49.064;9.290;2023-02-02T08:06:24;99822.28;;;4.50;100.00
43153;BME280;28756;49.064;9.290;2023-02-02T08:08:50;99824.78;;;4.55;100.00
43153;BME280;28756;49.064;9.290;2023-02-02T08:11:20;99824.84;;;4.50;100.00
43153;BME280;28756;49.064;9.290;2023-02-02T08:14:11;99846.34;;;4.51;100.00
43153;BME280;28756;49.064;9.290;2023-02-02T08:17:08;99842.00;;;4.53;100.00
43153;BME280;28756;49.064;9.290;2023-02-02T08:19:40;99848.00;;;4.53;100.00
43153;BME280;28756;49.064;9.290;2023-02-02T08:22:06;99851.53;;;4.48;100.00
43153;BME280;28756;49.064;9.290;2023-02-02T08:24:32;99848.03;;;4.50;100.00
43153;BME280;28756;49.064;9.290;2023-02-02T08:26:58;99854.09;;;4.49;100.00
43153;BME280;28756;49.064;9.290;2023-02-02T08:29:24;99872.94;;;4.53;100.00
43153;BME280;28756;49.064;9.290;2023-02-02T08:31:50;99855.66;;;4.58;100.00
43153;BME280;28756;49.064;9.290;2023-02-02T08:34:15;99858.19;;;4.59;100.00
43153;BME280;28756;49.064;9.290;2023-02-02T08:36:41;99863.34;;;4.59;100.00
43153;BME280;28756;49.064;9.290;2023-02-02T08:39:11;99869.44;;;4.55;100.00
43153;BME280;28756;49.064;9.290;2023-02-02T08:41:37;99855.75;;;4.52;100.00
43153;BME280;28756;49.064;9.290;2023-02-02T08:44:12;99863.69;;;4.41;100.00
43153;BME280;28756;49.064;9.290;2023-02-02T08:46:39;99872.31;;;4.37;100.00
43153;BME280;28756;49.064;9.290;2023-02-02T08:49:06;99873.06;;;4.42;100.00
43153;BME280;28756;49.064;9.290;2023-02-02T08:51:32;99863.66;;;4.42;100.00
43153;BME280;28756;49.064;9.290;2023-02-02T08:53:57;99872.09;;;4.51;100.00
43153;BME280;28756;49.064;9.290;2023-02-02T08:56:23;99872.06;;;4.52;100.00
43153;BME280;28756;49.064;9.290;2023-02-02T08:58:55;99870.28;;;4.56;100.00
43153;BME280;28756;49.064;9.290;2023-02-02T09:01:28;99864.94;;;4.67;100.00
43153;BME280;28756;49.064;9.290;2023-02-02T09:03:57;99869.28;;;4.63;100.00
43153;BME280;28756;49.064;9.290;2023-02-02T09:06:31;99874.50;;;4.60;100.00
43153;BME280;28756;49.064;9.290;2023-02-02T09:08:57;99876.16;;;4.64;100.00
43153;BME280;28756;49.064;9.290;2023-02-02T09:11:23;99872.69;;;4.65;100.00
43153;BME280;28756;49.064;9.290;2023-02-02T09:13:53;99874.44;;;4.65;100.00
43153;BME280;28756;49.064;9.290;2023-02-02T09:16:20;99877.00;;;4.65;100.00
43153;BME280;28756;49.064;9.290;2023-02-02T09:18:46;99874.34;;;4.69;100.00
43153;BME280;28756;49.064;9.290;2023-02-02T09:21:15;99871.63;;;4.77;100.00
43153;BME280;28756;49.064;9.290;2023-02-02T09:23:43;99871.66;;;4.76;100.00
43153;BME280;28756;49.064;9.290;2023-02-02T09:26:19;99870.75;;;4.78;100.00
43153;BME280;28756;49.064;9.290;2023-02-02T09:28:50;99872.47;;;4.79;100.00
43153;BME280;28756;49.064;9.290;2023-02-02T09:31:16;99885.22;;;4.85;100.00
43153;BME280;28756;49.064;9.290;2023-02-02T09:33:43;99885.97;;;4.90;100.00
43153;BME280;28756;49.064;9.290;2023-02-02T09:36:16;99892.03;;;4.88;100.00
43153;BME280;28756;49.064;9.290;2023-02-02T09:38:42;99886.03;;;4.89;100.00
43153;BME280;28756;49.064;9.290;2023-02-02T09:47:35;99897.16;;;4.91;100.00
43153;BME280;28756;49.064;9.290;2023-02-02T09:50:05;99897.19;;;4.88;100.00
43153;BME280;28756;49.064;9.290;2023-02-02T09:52:43;99897.16;;;4.91;100.00
43153;BME280;28756;49.064;9.290;2023-02-02T09:55:34;99898.91;;;4.89;100.00
43153;BME280;28756;49.064;9.290;2023-02-02T10:01:29;99883.19;;;5.03;100.00
43153;BME280;28756;49.064;9.290;2023-02-02T10:04:05;99883.91;;;5.11;100.00
43153;BME280;28756;49.064;9.290;2023-02-02T10:07:07;99883.81;;;5.16;100.00
43153;BME280;28756;49.064;9.290;2023-02-02T10:09:58;99865.53;;;5.27;100.00
43153;BME280;28756;49.064;9.290;2023-02-02T10:12:48;99877.47;;;5.32;100.00
43153;BME280;28756;49.064;9.290;2023-02-02T10:15:54;99888.59;;;5.34;100.00
43153;BME280;28756;49.064;9.290;2023-02-02T10:18:58;99890.16;;;5.43;100.00
43153;BME280;28756;49.064;9.290;2023-02-02T10:21:50;99882.53;;;5.35;100.00
43153;BME280;28756;49.064;9.290;2023-02-02T10:24:23;99894.59;;;5.35;100.00
43153;BME280;28756;49.064;9.290;2023-02-02T10:26:59;99890.19;;;5.40;100.00
43153;BME280;28756;49.064;9.290;2023-02-02T10:29:57;99890.28;;;5.35;100.00
43153;BME280;28756;49.064;9.290;2023-02-02T10:38:04;99893.47;;;5.48;100.00
43153;BME280;28756;49.064;9.290;2023-02-02T10:41:18;99886.56;;;5.49;100.00
43153;BME280;28756;49.064;9.290;2023-02-02T10:46:37;99906.31;;;5.51;100.00
43153;BME280;28756;49.064;9.290;2023-02-02T11:00:32;99920.38;;;5.36;100.00
43153;BME280;28756;49.064;9.290;2023-02-02T11:03:00;99916.22;;;5.29;100.00
43153;BME280;28756;49.064;9.290;2023-02-02T11:05:30;99918.97;;;5.20;100.00
43153;BME280;28756;49.064;9.290;2023-02-02T11:08:34;99925.88;;;5.18;100.00
43153;BME280;28756;49.064;9.290;2023-02-02T11:11:23;99921.69;;;5.12;100.00
43153;BME280;28756;49.064;9.290;2023-02-02T11:16:37;99928.66;;;5.07;100.00
43153;BME280;28756;49.064;9.290;2023-02-02T11:21:51;99918.31;;;5.09;100.00
43153;BME280;28756;49.064;9.290;2023-02-02T11:24:39;99917.47;;;5.08;100.00
43153;BME280;28756;49.064;9.290;2023-02-02T11:27:25;99920.91;;;5.07;100.00
43153;BME280;28756;49.064;9.290;2023-02-02T11:29:57;99915.00;;;5.02;100.00
43153;BME280;28756;49.064;9.290;2023-02-02T11:32:31;99922.81;;;4.97;100.00
43153;BME280;28756;49.064;9.290;2023-02-02T11:35:19;99926.34;;;4.93;100.00
43153;BME280;28756;49.064;9.290;2023-02-02T11:38:06;99922.06;;;4.90;100.00
43153;BME280;28756;49.064;9.290;2023-02-02T11:40:39;99921.22;;;4.90;100.00
43153;BME280;28756;49.064;9.290;2023-02-02T11:45:55;99925.63;;;4.83;100.00
43153;BME280;28756;49.064;9.290;2023-02-02T11:48:31;99930.81;;;4.82;100.00
43153;BME280;28756;49.064;9.290;2023-02-02T11:50:59;99924.00;;;4.79;100.00
43153;BME280;28756;49.064;9.290;2023-02-02T11:56:04;99930.09;;;4.73;100.00
43153;BME280;28756;49.064;9.290;2023-02-02T11:58:47;99920.75;;;4.69;100.00
43153;BME280;28756;49.064;9.290;2023-02-02T12:01:34;99929.31;;;4.70;100.00
43153;BME280;28756;49.064;9.290;2023-02-02T12:06:38;99929.34;;;4.68;100.00
43153;BME280;28756;49.064;9.290;2023-02-02T12:09:23;99921.59;;;4.68;100.00
43153;BME280;28756;49.064;9.290;2023-02-02T12:14:49;99929.44;;;4.61;100.00
43153;BME280;28756;49.064;9.290;2023-02-02T12:17:43;99930.31;;;4.61;100.00
43153;BME280;28756;49.064;9.290;2023-02-02T12:26:18;99932.94;;;4.58;100.00
43153;BME280;28756;49.064;9.290;2023-02-02T12:32:02;99923.41;;;4.63;100.00
43153;BME280;28756;49.064;9.290;2023-02-02T12:37:55;99921.63;;;4.67;100.00
43153;BME280;28756;49.064;9.290;2023-02-02T12:40:55;99915.47;;;4.76;100.00
43153;BME280;28756;49.064;9.290;2023-02-02T12:43:49;99917.97;;;4.79;100.00
43153;BME280;28756;49.064;9.290;2023-02-02T12:49:27;99919.84;;;4.72;100.00
43153;BME280;28756;49.064;9.290;2023-02-02T12:52:33;99924.06;;;4.74;100.00
43153;BME280;28756;49.064;9.290;2023-02-02T12:58:07;99922.38;;;4.73;100.00
43153;BME280;28756;49.064;9.290;2023-02-02T13:09:16;99928.53;;;4.65;100.00
43153;BME280;28756;49.064;9.290;2023-02-02T13:14:34;99914.53;;;4.80;100.00
43153;BME280;28756;49.064;9.290;2023-02-02T13:17:18;99903.31;;;4.84;100.00
43153;BME280;28756;49.064;9.290;2023-02-02T13:19:49;99915.31;;;4.85;100.00
43153;BME280;28756;49.064;9.290;2023-02-02T13:22:39;99910.13;;;4.86;100.00
43153;BME280;28756;49.064;9.290;2023-02-02T13:25:27;99916.03;;;4.92;100.00
43153;BME280;28756;49.064;9.290;2023-02-02T13:27:58;99921.22;;;4.90;100.00
43153;BME280;28756;49.064;9.290;2023-02-02T13:30:32;99921.19;;;4.93;100.00
43153;BME280;28756;49.064;9.290;2023-02-02T13:33:24;99926.28;;;4.96;100.00
43153;BME280;28756;49.064;9.290;2023-02-02T13:35:56;99922.69;;;5.03;100.00
43153;BME280;28756;49.064;9.290;2023-02-02T13:38:29;99935.75;;;4.96;100.00
43153;BME280;28756;49.064;9.290;2023-02-02T13:40:59;99939.19;;;4.95;100.00
43153;BME280;28756;49.064;9.290;2023-02-02T13:43:47;99938.19;;;5.02;100.00
43153;BME280;28756;49.064;9.290;2023-02-02T13:46:24;99939.81;;;5.08;100.00
43153;BME280;28756;49.064;9.290;2023-02-02T13:49:18;99937.25;;;5.06;100.00
43153;BME280;28756;49.064;9.290;2023-02-02T13:55:56;99943.28;;;5.06;100.00
43153;BME280;28756;49.064;9.290;2023-02-02T14:01:26;99959.56;;;5.09;100.00
43153;BME280;28756;49.064;9.290;2023-02-02T14:03:55;99944.75;;;5.20;100.00
43153;BME280;28756;49.064;9.290;2023-02-02T14:06:24;99944.81;;;5.17;100.00
43153;BME280;28756;49.064;9.290;2023-02-02T14:09:03;99946.41;;;5.22;100.00
43153;BME280;28756;49.064;9.290;2023-02-02T14:11:38;99942.19;;;5.18;100.00
43153;BME280;28756;49.064;9.290;2023-02-02T14:14:20;99938.78;;;5.16;100.00
43153;BME280;28756;49.064;9.290;2023-02-02T14:17:57;99938.75;;;5.18;100.00
43153;BME280;28756;49.064;9.290;2023-02-02T14:22:45;99954.06;;;5.29;100.00
43153;BME280;28756;49.064;9.290;2023-02-02T14:28:08;99958.38;;;5.25;100.00
43153;BME280;28756;49.064;9.290;2023-02-02T14:30:36;99963.66;;;5.20;100.00
43153;BME280;28756;49.064;9.290;2023-02-02T14:33:23;99972.28;;;5.19;100.00
43153;BME280;28756;49.064;9.290;2023-02-02T14:38:58;99975.75;;;5.17;100.00
43153;BME280;28756;49.064;9.290;2023-02-02T14:41:48;99975.75;;;5.17;100.00
43153;BME280;28756;49.064;9.290;2023-02-02T14:44:33;99980.88;;;5.18;100.00
43153;BME280;28756;49.064;9.290;2023-02-02T14:47:02;99973.06;;;5.23;100.00
43153;BME280;28756;49.064;9.290;2023-02-02T14:49:32;99982.59;;;5.18;100.00
43153;BME280;28756;49.064;9.290;2023-02-02T14:52:00;99981.75;;;5.17;100.00
43153;BME280;28756;49.064;9.290;2023-02-02T14:54:36;99981.72;;;5.19;100.00
43153;BME280;28756;49.064;9.290;2023-02-02T14:57:25;99983.53;;;5.14;100.00
43153;BME280;28756;49.064;9.290;2023-02-02T14:59:53;99980.94;;;5.15;100.00
43153;BME280;28756;49.064;9.290;2023-02-02T15:02:35;99985.25;;;5.15;100.00
43153;BME280;28756;49.064;9.290;2023-02-02T15:08:04;99995.47;;;5.19;100.00
43153;BME280;28756;49.064;9.290;2023-02-02T15:13:21;100004.09;;;5.18;100.00
43153;BME280;28756;49.064;9.290;2023-02-02T15:15:54;99994.66;;;5.17;100.00